createdAt,value
2019-04-29T00:02:28.787Z,78.70
2019-04-29T00:06:37.059Z,86.73
2019-04-29T00:10:43.962Z,84.70
2019-04-29T00:15:12.701Z,76.97
2019-04-29T00:19:32.680Z,78.13
2019-04-29T00:23:38.885Z,75.73
2019-04-29T00:27:46.784Z,79.37
2019-04-29T00:31:54.803Z,88.27
2019-04-29T00:36:01.011Z,96.97
2019-04-29T00:40:13.006Z,95.47
2019-04-29T00:44:20.499Z,100.87
2019-04-29T00:48:27.203Z,86.70
2019-04-29T00:52:34.257Z,102.27
2019-04-29T00:56:41.631Z,98.93
2019-04-29T01:00:52.887Z,96.83
2019-04-29T01:05:00.391Z,101.90
2019-04-29T01:09:10.508Z,103.03
2019-04-29T01:13:16.783Z,95.77
2019-04-29T01:17:23.393Z,83.57
2019-04-29T01:21:32.037Z,79.57
2019-04-29T01:25:37.690Z,92.93
2019-04-29T01:29:43.405Z,92.67
2019-04-29T01:34:01.610Z,101.27
2019-04-29T01:38:08.883Z,113.33
2019-04-29T01:42:20.807Z,120.03
2019-04-29T01:46:32.840Z,118.47
2019-04-29T01:50:39.513Z,119.00
2019-04-29T01:54:45.810Z,110.50
2019-04-29T01:58:52.453Z,101.87
2019-04-29T02:03:23.690Z,101.60
2019-04-29T02:07:32.687Z,95.07
2019-04-29T02:11:40.657Z,93.40
2019-04-29T02:15:46.435Z,91.70
2019-04-29T02:19:51.967Z,93.63
2019-04-29T02:24:16.948Z,87.57
2019-04-29T02:28:26.131Z,95.03
2019-04-29T02:32:34.561Z,86.57
2019-04-29T02:36:41.797Z,88.00
2019-04-29T02:41:00.717Z,81.83
2019-04-29T02:45:13.759Z,100.07
2019-04-29T02:49:19.880Z,89.03
2019-04-29T02:53:29.337Z,92.77
2019-04-29T02:57:56.034Z,100.63
2019-04-29T03:02:15.172Z,80.43
2019-04-29T03:06:20.861Z,85.63
2019-04-29T03:10:27.259Z,82.93
2019-04-29T03:14:33.387Z,102.23
2019-04-29T03:18:51.322Z,103.23
2019-04-29T03:23:19.900Z,103.70
2019-04-29T03:27:25.628Z,100.23
2019-04-29T03:31:38.399Z,102.53
2019-04-29T03:36:02.893Z,113.03
2019-04-29T03:40:10.004Z,119.40
2019-04-29T03:44:16.131Z,135.07
2019-04-29T03:48:29.594Z,126.67
2019-04-29T03:52:49.818Z,125.93
2019-04-29T03:56:55.477Z,126.77
2019-04-29T04:01:11.709Z,115.30
2019-04-29T04:05:38.717Z,99.00
2019-04-29T04:09:46.299Z,109.93
2019-04-29T04:23:30.430Z,123.77
2019-04-29T04:27:36.905Z,120.47
2019-04-29T04:36:23.526Z,165.53
2019-04-29T04:40:31.691Z,130.60
2019-04-29T04:44:50.344Z,157.40
2019-04-29T04:48:57.410Z,153.10
2019-04-29T04:53:04.671Z,145.80
2019-04-29T04:57:11.043Z,127.20
2019-04-29T05:01:37.964Z,110.23
2019-04-29T05:19:22.693Z,77.57
2019-04-29T05:23:48.873Z,70.73
2019-04-29T05:27:54.700Z,69.97
2019-04-29T05:32:02.311Z,74.43
2019-04-29T05:36:29.648Z,67.50
2019-04-29T05:40:41.726Z,68.23
2019-04-29T05:44:55.917Z,63.13
2019-04-29T05:49:07.181Z,69.47
2019-04-29T05:53:33.501Z,68.87
2019-04-29T05:57:40.148Z,65.07
2019-04-29T06:01:50.615Z,69.07
2019-04-29T06:05:57.171Z,64.20
2019-04-29T06:10:04.241Z,60.70
2019-04-29T06:14:09.763Z,58.63
2019-04-29T06:18:17.706Z,60.50
2019-04-29T06:22:27.790Z,63.23
2019-04-29T06:26:35.314Z,59.70
2019-04-29T06:30:50.124Z,58.83
2019-04-29T06:34:55.619Z,59.73
2019-04-29T06:39:07.485Z,66.83
2019-04-29T06:43:16.965Z,62.03
2019-04-29T06:47:25.060Z,63.70
2019-04-29T06:51:31.316Z,59.50
2019-04-29T06:55:57.910Z,56.90
2019-04-29T07:00:04.657Z,51.27
2019-04-29T07:04:10.768Z,55.03
2019-04-29T07:08:17.802Z,54.27
2019-04-29T07:12:23.868Z,54.07
2019-04-29T07:16:32.794Z,55.90
2019-04-29T07:20:59.821Z,55.93
2019-04-29T07:25:08.217Z,51.23
2019-04-29T07:29:14.086Z,52.10
2019-04-29T07:33:25.442Z,61.23
2019-04-29T07:37:34.198Z,55.40
2019-04-29T07:41:39.839Z,57.37
2019-04-29T07:46:06.180Z,53.90
2019-04-29T08:05:02.552Z,52.73
2019-04-29T08:09:28.131Z,52.60
2019-04-29T08:13:36.063Z,46.33
2019-04-29T08:17:44.191Z,47.27
2019-04-29T08:21:51.862Z,53.73
2019-04-29T08:26:02.567Z,47.90
2019-04-29T08:30:11.351Z,48.83
2019-04-29T08:34:18.842Z,42.13
2019-04-29T08:38:29.163Z,53.20
2019-04-29T08:42:41.885Z,50.47
2019-04-29T08:47:00.639Z,45.97
2019-04-29T08:51:07.965Z,53.13
2019-04-29T08:55:15.673Z,46.47
2019-04-29T08:59:25.723Z,45.90
2019-04-29T09:03:40.371Z,48.83
2019-04-29T09:07:46.191Z,50.00
2019-04-29T09:11:54.128Z,45.83
2019-04-29T10:26:25.996Z,43.60
2019-04-29T10:30:32.616Z,47.07
2019-04-29T11:32:03.100Z,44.63
2019-04-29T11:36:10.975Z,37.93
2019-04-29T15:57:15.708Z,20.87
2019-04-29T16:01:27.853Z,24.97
2019-04-29T16:06:11.004Z,24.10
2019-04-29T16:19:42.785Z,27.10
2019-04-29T16:23:49.194Z,25.43
2019-04-29T16:27:56.677Z,29.43
2019-04-29T16:32:07.937Z,23.37
2019-04-29T17:16:49.455Z,29.87
2019-04-29T17:21:04.730Z,31.50
2019-04-29T17:25:08.576Z,36.30
2019-04-29T17:29:38.390Z,24.60
2019-04-29T17:33:50.083Z,37.60
2019-04-29T17:37:54.066Z,38.03
2019-04-29T18:15:20.900Z,39.70
2019-04-29T18:20:13.664Z,43.10
2019-04-29T18:24:35.845Z,35.63
2019-04-29T18:28:41.156Z,34.53
2019-04-29T18:37:24.992Z,36.90
2019-04-29T18:41:31.369Z,42.80
2019-04-29T18:45:55.882Z,40.30
2019-04-29T18:49:58.435Z,48.40
2019-04-29T18:54:08.799Z,45.73
2019-04-29T18:58:19.007Z,43.73
2019-04-29T19:02:27.115Z,41.57
2019-04-29T19:21:31.322Z,47.67
2019-04-29T19:25:36.192Z,43.57
2019-04-29T19:29:44.556Z,42.77
2019-04-29T19:33:55.089Z,39.10
2019-04-29T19:47:52.982Z,46.37
2019-04-29T19:51:55.599Z,48.70
2019-04-29T19:56:04.941Z,49.03
2019-04-29T20:00:14.482Z,44.27
2019-04-29T20:04:37.568Z,48.43
2019-04-29T20:08:54.014Z,42.90
2019-04-29T20:12:57.699Z,46.67
2019-04-29T20:17:23.846Z,47.80
2019-04-29T20:21:36.411Z,48.57
2019-04-29T20:25:42.996Z,51.40
2019-04-29T20:57:25.696Z,40.87
2019-04-29T21:01:43.138Z,40.53
2019-04-29T22:31:08.824Z,37.27
2019-04-29T22:35:16.514Z,37.43
2019-04-29T22:39:26.792Z,41.83
2019-04-29T22:43:54.670Z,45.03
2019-04-29T22:48:14.670Z,44.03
2019-04-29T22:52:09.563Z,47.90
2019-04-29T22:56:15.953Z,43.70
2019-04-29T23:09:16.761Z,44.33
2019-04-29T23:13:22.438Z,43.83
2019-04-29T23:17:28.480Z,40.77
2019-04-29T23:22:15.425Z,42.43
2019-04-29T23:26:24.988Z,48.07
2019-04-29T23:35:09.670Z,44.53
2019-04-29T23:39:15.283Z,41.80
2019-04-29T23:43:25.291Z,42.87
2019-04-29T23:47:33.439Z,49.13
2019-04-29T23:51:59.141Z,49.10
2019-04-29T23:56:18.135Z,46.37
